Terminal Aerodrome Forecast
Issued by NWS

Home | Current Version | Previous Version | Text Only | Print | Product List | Glossary On
Versions: 1 2 3 4 5 6 7 8 9 10 11 12 13 14 15 16 17
000
FTUS46 KSEW 281120
TAFPAE
TAF
KPAE 281120Z 2812/2912 15006KT P6SM SCT015 OVC030
      TEMPO 2812/2816 -RA OVC015
     FM281600 15010KT P6SM -RA OVC030
      TEMPO 2816/2818 -RA OVC020
     FM282000 17015G25KT P6SM VCSH BKN030 BKN040
     FM282200 18013G22KT P6SM -SHRA SCT030 OVC040
     FM290300 16010KT P6SM -SHRA BKN030 BKN040
     FM291000 16006KT P6SM VCSH OVC020=

USA.gov is the U.S. government's official web portal to all federal, state and local government web resources and services.